KSDA

Shenandoah Municipal Airport

Shenandoah, Iowa, USA
METAR KSDA 200535Z AUTO 00000KT 10SM FEW050 22/19 A2989 RMK AO2
Observed Flight Rules
Jun-20 @ 05:35 UTC (5 minutes ago) Visual Flight Rules
Visibility Clouds
10 miles
  • Few at 5,000' AGL
Temperatures Readings
Current 22°C / 72°F
Dewpoint 19°C / 66°F
Humidity 83%
Altimeter 29.89" Hg
Pressure 1012 hPa
Elevation 296
METAR KSDA 200535Z AUTO 00000KT 10SM FEW050 22/19 A2989 RMK AO2
Observed Flight Rules
Jun-20 @ 05:35 UTC
(5 minutes ago)
VFR
Clouds
  • Few at 5,000' AGL
Temperature Dewpoint
22°C / 72°F 19°C / 66°F
Humidity Altimeter Pressure
83% 29.89" Hg 1012 hPa